• Join FlightAware (Why Join?)
  • Login
  • US Flag 
06:34AM EDT


 

Airport Tracker/Info


-or-


 

Live Flight TrackerFlight Track Log ✈ N8646A ✈ 02-May-2012 ✈ KDTW - CYYZ

Flight Track Log - Related Links

Times and Time Zones

All times are in EDT time to prevent confusion due to time zone crossing. See the N8646A flight status page for this flight to view local times or setup timezone preferences in your user account.

Time Position Orientation Groundspeed Altitude Reporting Facility
EDT Latitude Longitude Course Direction KTS MPH feet Rate Location/Type
08:18AM 42.2036 -83.3556 174° South 153 176 1,200  Level Cleveland Center
08:19AM 42.1747 -83.3514 171° South 166 191 2,500 1,800 Climbing Cleveland Center
08:20AM 42.1447 -83.3450 172° South 204 235 3,600 1,800 Climbing FAA TRACON SMA TRACON (SMA)
08:20AM 42.1025 -83.3372 163° South 236 272 4,900 2,100 Climbing FAA TRACON SMA TRACON (SMA)
08:21AM 42.0553 -83.3183 111° Southeast 281 323 6,500 2,520 Climbing FAA TRACON SMA TRACON (SMA)
08:22AM 42.0353 -83.2475 57° Northeast 317 365 8,300 2,580 Climbing FAA TRACON SMA TRACON (SMA)
08:22AM 42.0664 -83.1833 10° North 315 362 10,000 1,800 Climbing FAA TRACON SMA TRACON (SMA)
08:23AM 42.1203 -83.1711 North 320 368 10,700 1,320 Climbing FAA TRACON SMA TRACON (SMA)
08:24AM 42.1839 -83.1675 North 338 389 11,800 1,680 Climbing FAA TRACON SMA TRACON (SMA)
08:24AM 42.2506 -83.1653 North 347 399 13,000 1,260 Climbing FAA TRACON SMA TRACON (SMA)
08:25AM 42.3156 -83.1622 North 364 419 13,500 1,320 Climbing FAA TRACON SMA TRACON (SMA)
08:26AM 42.3847 -83.1589 North 370 426 14,900 2,100 Climbing FAA TRACON SMA TRACON (SMA)
08:26AM 42.4539 -83.1561 North 366 421 16,300 2,160 Climbing FAA TRACON SMA TRACON (SMA)
08:27AM 42.5242 -83.1531 North 365 420 17,700 1,680 Climbing FAA TRACON SMA TRACON (SMA)
08:28AM 42.5886 -83.1506 12° North 363 418 18,600 900 Climbing FAA TRACON SMA TRACON (SMA)
08:28AM 42.6592 -83.1306 21° North 395 455 19,000 240 Climbing FAA TRACON SMA TRACON (SMA)
08:29AM 42.7328 -83.0914 22° Northeast 412 474 19,000  Level FAA TRACON SMA TRACON (SMA)
08:30AM 42.8083 -83.0489 23° Northeast 422 486 19,000  Level FAA TRACON SMA TRACON (SMA)
08:30AM 42.8789 -83.0078 47° Northeast 432 497 19,000  Level FAA TRACON SMA TRACON (SMA)
08:31AM 42.9358 -82.9256 72° East 451 519 19,000  Level FAA TRACON SMA TRACON (SMA)
08:32AM 42.9625 -82.8142 74° East 455 524 19,000  Level FAA TRACON SMA TRACON (SMA)
08:32AM 42.9767 -82.7478 77° East 458 527 19,000  Level FAA TRACON SMA TRACON (SMA)
08:33AM 43.0167 -82.5000 73° East 460 529 19,000  Level Toronto Center
08:34AM 43.0500 -82.3500 75° East 450 518 19,000  Level Toronto Center
08:35AM 43.0833 -82.1833 75° East 450 518 19,000  Level Toronto Center
08:36AM 43.1167 -82.0167 75° East 440 506 19,000  Level Toronto Center
08:37AM 43.1500 -81.8500 75° East 440 506 19,000  Level Toronto Center
08:38AM 43.1833 -81.6833 73° East 440 506 19,000  Level Toronto Center
08:39AM 43.2167 -81.5333 75° East 440 506 19,000  Level Toronto Center
08:40AM 43.2500 -81.3667 76° East 440 506 19,000 -360 Level Toronto Center
08:41AM 43.2833 -81.1833 71° East 440 506 18,300 -1,020 Descending Toronto Center
08:42AM 43.3167 -81.0500 83° East 440 506 17,000 -1,500 Descending Toronto Center
08:43AM 43.3333 -80.8667 63° Northeast 430 495 15,400 -1,560 Descending Toronto Center
08:44AM 43.3833 -80.7333 79° East 400 460 13,900 -1,500 Descending Toronto Center
08:45AM 43.4000 -80.6167 71° East 370 426 12,500 -1,500 Descending Toronto Center
08:46AM 43.4333 -80.4833 79° East 330 380 10,900 -1,560 Descending Toronto Center
08:47AM 43.4500 -80.3667 79° East 320 368 9,400 -1,440 Descending Toronto Center
08:48AM 43.4667 -80.2500 75° East 300 345 8,100 -1,320 Descending Toronto Center
08:49AM 43.4833 -80.1667 90° East 280 322 6,800 -1,200 Descending Toronto Center
08:50AM 43.4833 -80.0667 90° East 250 288 5,700 -900 Descending Toronto Center
08:51AM 43.4833 -79.9833 90° East 220 253 5,000 -660 Descending Toronto Center
08:52AM 43.4833 -79.9167 47° Northeast 200 230 4,400 -900 Descending Toronto Center
08:53AM 43.5167 -79.8667 55° Northeast 190 219 3,200 -720 Descending Toronto Center
08:54AM 43.5500 -79.8000 47° Northeast 180 207 3,000 -240 Descending Toronto Center
08:55AM 43.5833 -79.7500 47° Northeast 170 196 2,800 -600 Descending Toronto Center
08:56AM 43.6167 -79.7000 20° North 160 184 1,900 -840 Descending Toronto Center
08:57AM 43.6500 -79.6833 65° Northeast 130 150 1,200 -720 Descending Toronto Center
08:58AM 43.6667 -79.6333 360° North 130 150 500 -360 Descending Toronto Center
08:59AM 43.6667 -79.6333 360° North 40 46 500  Level Toronto Center